sensor_id;sensor_type;location;lat;lon;timestamp;P1;durP1;ratioP1;P2;durP2;ratioP2
2157;SDS011;41972;48.774;9.282;2023-05-08T00:00:48;28.90;;;26.93;;
2157;SDS011;41972;48.774;9.282;2023-05-08T00:03:13;31.30;;;28.80;;
2157;SDS011;41972;48.774;9.282;2023-05-08T00:05:40;40.20;;;37.67;;
2157;SDS011;41972;48.774;9.282;2023-05-08T00:08:05;32.73;;;29.83;;
2157;SDS011;41972;48.774;9.282;2023-05-08T00:10:31;31.47;;;29.37;;
2157;SDS011;41972;48.774;9.282;2023-05-08T00:12:57;29.50;;;26.80;;
2157;SDS011;41972;48.774;9.282;2023-05-08T00:15:23;24.77;;;22.87;;
2157;SDS011;41972;48.774;9.282;2023-05-08T00:17:48;29.83;;;27.37;;
2157;SDS011;41972;48.774;9.282;2023-05-08T00:20:14;27.63;;;25.73;;
2157;SDS011;41972;48.774;9.282;2023-05-08T00:22:39;37.30;;;34.70;;
2157;SDS011;41972;48.774;9.282;2023-05-08T00:25:05;33.60;;;31.30;;
2157;SDS011;41972;48.774;9.282;2023-05-08T00:27:31;30.57;;;28.57;;
2157;SDS011;41972;48.774;9.282;2023-05-08T00:29:57;29.37;;;27.57;;
2157;SDS011;41972;48.774;9.282;2023-05-08T00:32:23;17.30;;;15.90;;
2157;SDS011;41972;48.774;9.282;2023-05-08T00:34:48;33.40;;;31.40;;
2157;SDS011;41972;48.774;9.282;2023-05-08T00:37:14;18.70;;;17.10;;
2157;SDS011;41972;48.774;9.282;2023-05-08T00:39:40;23.57;;;21.57;;
2157;SDS011;41972;48.774;9.282;2023-05-08T00:42:05;27.20;;;25.50;;
2157;SDS011;41972;48.774;9.282;2023-05-08T00:44:31;29.10;;;27.30;;
2157;SDS011;41972;48.774;9.282;2023-05-08T00:46:57;25.30;;;23.70;;
2157;SDS011;41972;48.774;9.282;2023-05-08T00:49:22;24.73;;;23.23;;
2157;SDS011;41972;48.774;9.282;2023-05-08T00:51:50;30.67;;;28.80;;
2157;SDS011;41972;48.774;9.282;2023-05-08T00:54:18;21.07;;;19.37;;
2157;SDS011;41972;48.774;9.282;2023-05-08T00:56:44;24.73;;;23.17;;
2157;SDS011;41972;48.774;9.282;2023-05-08T00:59:12;32.77;;;30.77;;
2157;SDS011;41972;48.774;9.282;2023-05-08T01:01:40;32.90;;;30.40;;
2157;SDS011;41972;48.774;9.282;2023-05-08T01:04:07;32.90;;;30.63;;
2157;SDS011;41972;48.774;9.282;2023-05-08T01:06:32;31.73;;;29.30;;
2157;SDS011;41972;48.774;9.282;2023-05-08T01:08:59;36.07;;;33.30;;
2157;SDS011;41972;48.774;9.282;2023-05-08T01:11:36;35.97;;;33.00;;
2157;SDS011;41972;48.774;9.282;2023-05-08T01:14:18;37.87;;;34.67;;
2157;SDS011;41972;48.774;9.282;2023-05-08T01:28:12;31.47;;;28.97;;
2157;SDS011;41972;48.774;9.282;2023-05-08T01:33:40;45.90;;;42.83;;
2157;SDS011;41972;48.774;9.282;2023-05-08T01:36:22;39.97;;;36.97;;
2157;SDS011;41972;48.774;9.282;2023-05-08T01:41:49;39.00;;;35.90;;
2157;SDS011;41972;48.774;9.282;2023-05-08T01:44:32;35.50;;;32.37;;
2157;SDS011;41972;48.774;9.282;2023-05-08T01:47:04;48.97;;;45.63;;
2157;SDS011;41972;48.774;9.282;2023-05-08T01:49:33;33.77;;;30.87;;
2157;SDS011;41972;48.774;9.282;2023-05-08T01:52:06;38.53;;;35.63;;
2157;SDS011;41972;48.774;9.282;2023-05-08T01:54:42;37.67;;;34.97;;
2157;SDS011;41972;48.774;9.282;2023-05-08T01:57:12;36.03;;;33.13;;
2157;SDS011;41972;48.774;9.282;2023-05-08T01:59:40;34.63;;;31.73;;
2157;SDS011;41972;48.774;9.282;2023-05-08T02:02:06;37.97;;;35.47;;
2157;SDS011;41972;48.774;9.282;2023-05-08T02:04:33;28.27;;;25.90;;
2157;SDS011;41972;48.774;9.282;2023-05-08T02:06:59;31.37;;;28.80;;
2157;SDS011;41972;48.774;9.282;2023-05-08T02:09:26;31.07;;;28.10;;
2157;SDS011;41972;48.774;9.282;2023-05-08T02:11:53;38.90;;;35.90;;
2157;SDS011;41972;48.774;9.282;2023-05-08T02:14:20;33.50;;;30.50;;
2157;SDS011;41972;48.774;9.282;2023-05-08T02:16:47;39.83;;;36.90;;
2157;SDS011;41972;48.774;9.282;2023-05-08T02:19:15;37.37;;;34.30;;
2157;SDS011;41972;48.774;9.282;2023-05-08T02:21:43;21.20;;;19.60;;
2157;SDS011;41972;48.774;9.282;2023-05-08T02:24:09;27.17;;;25.60;;
2157;SDS011;41972;48.774;9.282;2023-05-08T02:26:37;21.67;;;19.87;;
2157;SDS011;41972;48.774;9.282;2023-05-08T02:29:05;28.00;;;25.80;;
2157;SDS011;41972;48.774;9.282;2023-05-08T02:31:31;26.20;;;23.97;;
2157;SDS011;41972;48.774;9.282;2023-05-08T02:33:57;39.83;;;37.13;;
2157;SDS011;41972;48.774;9.282;2023-05-08T02:36:24;29.80;;;27.30;;
2157;SDS011;41972;48.774;9.282;2023-05-08T02:38:51;29.17;;;26.17;;
2157;SDS011;41972;48.774;9.282;2023-05-08T02:41:20;31.50;;;28.83;;
2157;SDS011;41972;48.774;9.282;2023-05-08T02:43:47;30.00;;;27.30;;
2157;SDS011;41972;48.774;9.282;2023-05-08T02:54:20;25.07;;;22.67;;
2157;SDS011;41972;48.774;9.282;2023-05-08T02:56:59;25.73;;;23.43;;
2157;SDS011;41972;48.774;9.282;2023-05-08T02:59:34;25.83;;;23.43;;
2157;SDS011;41972;48.774;9.282;2023-05-08T03:02:09;25.77;;;23.27;;
2157;SDS011;41972;48.774;9.282;2023-05-08T03:04:42;23.50;;;21.33;;
2157;SDS011;41972;48.774;9.282;2023-05-08T03:07:13;22.40;;;20.03;;
2157;SDS011;41972;48.774;9.282;2023-05-08T03:09:41;20.90;;;19.10;;
2157;SDS011;41972;48.774;9.282;2023-05-08T03:12:10;24.07;;;21.87;;
2157;SDS011;41972;48.774;9.282;2023-05-08T03:14:42;24.33;;;21.83;;
2157;SDS011;41972;48.774;9.282;2023-05-08T03:17:16;23.87;;;21.67;;
2157;SDS011;41972;48.774;9.282;2023-05-08T03:19:45;23.43;;;21.47;;
2157;SDS011;41972;48.774;9.282;2023-05-08T03:22:14;25.57;;;23.47;;
2157;SDS011;41972;48.774;9.282;2023-05-08T03:24:40;22.53;;;20.53;;
2157;SDS011;41972;48.774;9.282;2023-05-08T03:27:08;23.90;;;21.70;;
2157;SDS011;41972;48.774;9.282;2023-05-08T03:29:34;23.83;;;21.73;;
2157;SDS011;41972;48.774;9.282;2023-05-08T03:32:02;24.57;;;22.47;;
2157;SDS011;41972;48.774;9.282;2023-05-08T03:34:28;22.37;;;20.37;;
2157;SDS011;41972;48.774;9.282;2023-05-08T03:36:55;24.87;;;22.47;;
2157;SDS011;41972;48.774;9.282;2023-05-08T03:39:21;24.97;;;22.60;;
2157;SDS011;41972;48.774;9.282;2023-05-08T03:41:48;22.87;;;20.57;;
2157;SDS011;41972;48.774;9.282;2023-05-08T03:44:14;22.13;;;20.27;;
2157;SDS011;41972;48.774;9.282;2023-05-08T03:46:41;24.37;;;22.27;;
2157;SDS011;41972;48.774;9.282;2023-05-08T03:49:08;22.50;;;20.70;;
2157;SDS011;41972;48.774;9.282;2023-05-08T03:51:35;19.40;;;17.80;;
2157;SDS011;41972;48.774;9.282;2023-05-08T03:54:06;22.17;;;20.20;;
2157;SDS011;41972;48.774;9.282;2023-05-08T03:56:32;22.70;;;20.70;;
2157;SDS011;41972;48.774;9.282;2023-05-08T04:01:38;20.13;;;18.30;;
2157;SDS011;41972;48.774;9.282;2023-05-08T04:04:09;22.17;;;20.30;;
2157;SDS011;41972;48.774;9.282;2023-05-08T04:06:54;19.00;;;17.27;;
2157;SDS011;41972;48.774;9.282;2023-05-08T04:09:35;19.10;;;17.20;;
2157;SDS011;41972;48.774;9.282;2023-05-08T04:12:14;20.40;;;18.40;;
2157;SDS011;41972;48.774;9.282;2023-05-08T04:14:43;22.80;;;20.83;;
2157;SDS011;41972;48.774;9.282;2023-05-08T04:17:13;20.33;;;18.53;;
2157;SDS011;41972;48.774;9.282;2023-05-08T04:19:45;17.50;;;16.17;;
2157;SDS011;41972;48.774;9.282;2023-05-08T04:22:15;20.37;;;18.57;;
2157;SDS011;41972;48.774;9.282;2023-05-08T04:24:44;21.63;;;19.93;;
2157;SDS011;41972;48.774;9.282;2023-05-08T04:27:12;19.97;;;18.43;;
2157;SDS011;41972;48.774;9.282;2023-05-08T04:29:38;23.17;;;21.37;;
2157;SDS011;41972;48.774;9.282;2023-05-08T04:32:04;22.80;;;21.10;;
2157;SDS011;41972;48.774;9.282;2023-05-08T04:34:31;20.80;;;19.30;;
2157;SDS011;41972;48.774;9.282;2023-05-08T04:36:57;18.30;;;16.93;;
2157;SDS011;41972;48.774;9.282;2023-05-08T04:39:23;21.50;;;19.90;;
2157;SDS011;41972;48.774;9.282;2023-05-08T04:41:48;21.60;;;20.10;;
2157;SDS011;41972;48.774;9.282;2023-05-08T04:44:16;22.10;;;20.70;;
2157;SDS011;41972;48.774;9.282;2023-05-08T04:46:41;19.47;;;17.93;;
2157;SDS011;41972;48.774;9.282;2023-05-08T04:49:07;18.20;;;16.80;;
2157;SDS011;41972;48.774;9.282;2023-05-08T04:51:33;16.10;;;14.90;;
2157;SDS011;41972;48.774;9.282;2023-05-08T04:53:58;15.87;;;14.63;;
2157;SDS011;41972;48.774;9.282;2023-05-08T04:56:24;18.67;;;17.27;;
2157;SDS011;41972;48.774;9.282;2023-05-08T04:58:50;17.27;;;16.07;;
2157;SDS011;41972;48.774;9.282;2023-05-08T05:01:16;15.10;;;13.93;;
2157;SDS011;41972;48.774;9.282;2023-05-08T05:03:41;15.27;;;14.20;;
2157;SDS011;41972;48.774;9.282;2023-05-08T05:06:07;23.30;;;21.90;;
2157;SDS011;41972;48.774;9.282;2023-05-08T05:08:33;20.40;;;19.00;;
2157;SDS011;41972;48.774;9.282;2023-05-08T05:10:58;13.67;;;12.57;;
2157;SDS011;41972;48.774;9.282;2023-05-08T05:13:24;17.20;;;16.00;;
2157;SDS011;41972;48.774;9.282;2023-05-08T05:15:49;15.37;;;14.30;;
2157;SDS011;41972;48.774;9.282;2023-05-08T05:18:18;13.20;;;12.20;;
2157;SDS011;41972;48.774;9.282;2023-05-08T05:20:44;24.70;;;23.20;;
2157;SDS011;41972;48.774;9.282;2023-05-08T05:23:10;20.40;;;19.20;;
2157;SDS011;41972;48.774;9.282;2023-05-08T05:25:36;16.30;;;15.27;;
2157;SDS011;41972;48.774;9.282;2023-05-08T05:28:02;13.67;;;12.57;;
2157;SDS011;41972;48.774;9.282;2023-05-08T05:30:28;15.93;;;14.60;;
2157;SDS011;41972;48.774;9.282;2023-05-08T05:32:53;16.23;;;15.10;;
2157;SDS011;41972;48.774;9.282;2023-05-08T05:35:19;16.70;;;15.50;;
2157;SDS011;41972;48.774;9.282;2023-05-08T05:37:44;17.20;;;16.07;;
2157;SDS011;41972;48.774;9.282;2023-05-08T05:40:10;21.50;;;20.30;;
2157;SDS011;41972;48.774;9.282;2023-05-08T05:42:37;22.20;;;21.00;;
2157;SDS011;41972;48.774;9.282;2023-05-08T05:45:03;17.27;;;16.20;;
2157;SDS011;41972;48.774;9.282;2023-05-08T05:47:29;21.57;;;20.30;;
2157;SDS011;41972;48.774;9.282;2023-05-08T05:49:54;21.03;;;19.87;;
2157;SDS011;41972;48.774;9.282;2023-05-08T05:52:20;27.70;;;26.30;;
2157;SDS011;41972;48.774;9.282;2023-05-08T05:54:46;16.73;;;15.43;;
2157;SDS011;41972;48.774;9.282;2023-05-08T05:57:12;24.30;;;22.83;;
2157;SDS011;41972;48.774;9.282;2023-05-08T05:59:38;23.33;;;22.03;;
2157;SDS011;41972;48.774;9.282;2023-05-08T06:02:04;23.87;;;22.60;;
2157;SDS011;41972;48.774;9.282;2023-05-08T06:04:29;17.20;;;16.20;;
2157;SDS011;41972;48.774;9.282;2023-05-08T06:06:55;24.43;;;23.27;;
2157;SDS011;41972;48.774;9.282;2023-05-08T06:09:21;12.87;;;11.87;;
2157;SDS011;41972;48.774;9.282;2023-05-08T06:11:46;12.67;;;11.77;;
2157;SDS011;41972;48.774;9.282;2023-05-08T06:14:12;14.60;;;13.60;;
2157;SDS011;41972;48.774;9.282;2023-05-08T06:16:37;13.07;;;12.17;;
2157;SDS011;41972;48.774;9.282;2023-05-08T06:19:03;13.27;;;12.47;;
2157;SDS011;41972;48.774;9.282;2023-05-08T06:21:29;16.57;;;15.53;;
2157;SDS011;41972;48.774;9.282;2023-05-08T06:23:55;11.90;;;11.00;;
2157;SDS011;41972;48.774;9.282;2023-05-08T06:26:21;11.53;;;10.73;;
2157;SDS011;41972;48.774;9.282;2023-05-08T06:28:47;13.73;;;12.73;;
2157;SDS011;41972;48.774;9.282;2023-05-08T06:31:12;14.17;;;13.27;;
2157;SDS011;41972;48.774;9.282;2023-05-08T06:33:38;19.47;;;18.27;;
2157;SDS011;41972;48.774;9.282;2023-05-08T06:36:04;21.10;;;19.03;;
2157;SDS011;41972;48.774;9.282;2023-05-08T06:38:30;22.63;;;20.93;;
2157;SDS011;41972;48.774;9.282;2023-05-08T06:40:56;21.83;;;20.43;;
2157;SDS011;41972;48.774;9.282;2023-05-08T06:43:21;14.97;;;13.70;;
2157;SDS011;41972;48.774;9.282;2023-05-08T06:45:47;14.80;;;13.70;;
2157;SDS011;41972;48.774;9.282;2023-05-08T06:48:12;21.40;;;19.90;;
2157;SDS011;41972;48.774;9.282;2023-05-08T06:50:38;17.87;;;16.40;;
2157;SDS011;41972;48.774;9.282;2023-05-08T06:53:04;16.33;;;15.03;;
2157;SDS011;41972;48.774;9.282;2023-05-08T06:55:31;16.97;;;15.77;;
2157;SDS011;41972;48.774;9.282;2023-05-08T06:57:57;14.93;;;13.53;;
2157;SDS011;41972;48.774;9.282;2023-05-08T07:00:22;17.30;;;16.10;;
2157;SDS011;41972;48.774;9.282;2023-05-08T07:02:48;16.27;;;15.07;;
2157;SDS011;41972;48.774;9.282;2023-05-08T07:05:13;20.20;;;18.90;;
2157;SDS011;41972;48.774;9.282;2023-05-08T07:07:39;16.80;;;15.60;;
2157;SDS011;41972;48.774;9.282;2023-05-08T07:10:06;18.27;;;17.00;;
2157;SDS011;41972;48.774;9.282;2023-05-08T07:12:32;16.87;;;15.67;;
2157;SDS011;41972;48.774;9.282;2023-05-08T07:14:57;17.80;;;16.50;;
2157;SDS011;41972;48.774;9.282;2023-05-08T07:17:23;18.57;;;17.27;;
2157;SDS011;41972;48.774;9.282;2023-05-08T07:19:49;20.27;;;19.03;;
2157;SDS011;41972;48.774;9.282;2023-05-08T07:22:15;18.93;;;17.80;;
2157;SDS011;41972;48.774;9.282;2023-05-08T07:24:40;17.93;;;16.83;;
2157;SDS011;41972;48.774;9.282;2023-05-08T07:27:06;14.77;;;13.50;;
2157;SDS011;41972;48.774;9.282;2023-05-08T07:29:32;16.47;;;14.87;;
2157;SDS011;41972;48.774;9.282;2023-05-08T07:31:59;19.00;;;17.70;;
2157;SDS011;41972;48.774;9.282;2023-05-08T07:34:25;21.40;;;19.90;;
2157;SDS011;41972;48.774;9.282;2023-05-08T07:36:51;20.47;;;19.07;;
2157;SDS011;41972;48.774;9.282;2023-05-08T07:39:17;20.87;;;19.17;;
2157;SDS011;41972;48.774;9.282;2023-05-08T07:41:42;18.50;;;17.10;;
2157;SDS011;41972;48.774;9.282;2023-05-08T07:44:09;22.07;;;20.53;;
2157;SDS011;41972;48.774;9.282;2023-05-08T07:46:35;20.27;;;18.57;;
2157;SDS011;41972;48.774;9.282;2023-05-08T07:49:01;21.33;;;19.43;;
2157;SDS011;41972;48.774;9.282;2023-05-08T07:51:26;15.90;;;14.70;;
2157;SDS011;41972;48.774;9.282;2023-05-08T07:53:52;21.30;;;19.70;;
2157;SDS011;41972;48.774;9.282;2023-05-08T07:56:19;20.10;;;18.67;;
2157;SDS011;41972;48.774;9.282;2023-05-08T07:58:46;14.77;;;13.70;;
2157;SDS011;41972;48.774;9.282;2023-05-08T08:01:12;15.10;;;13.80;;
2157;SDS011;41972;48.774;9.282;2023-05-08T08:03:37;16.70;;;15.60;;
2157;SDS011;41972;48.774;9.282;2023-05-08T08:06:03;13.80;;;12.60;;
2157;SDS011;41972;48.774;9.282;2023-05-08T08:08:28;15.87;;;14.57;;
2157;SDS011;41972;48.774;9.282;2023-05-08T08:10:54;12.70;;;11.80;;
2157;SDS011;41972;48.774;9.282;2023-05-08T08:13:20;11.73;;;10.73;;
2157;SDS011;41972;48.774;9.282;2023-05-08T08:15:45;14.80;;;13.80;;
2157;SDS011;41972;48.774;9.282;2023-05-08T08:18:11;15.10;;;14.00;;
2157;SDS011;41972;48.774;9.282;2023-05-08T08:20:36;13.43;;;12.50;;
2157;SDS011;41972;48.774;9.282;2023-05-08T08:23:02;13.17;;;12.17;;
2157;SDS011;41972;48.774;9.282;2023-05-08T08:25:28;12.07;;;11.20;;
2157;SDS011;41972;48.774;9.282;2023-05-08T08:27:53;17.70;;;16.60;;
2157;SDS011;41972;48.774;9.282;2023-05-08T08:30:19;13.73;;;12.83;;
2157;SDS011;41972;48.774;9.282;2023-05-08T08:32:45;18.17;;;17.17;;
2157;SDS011;41972;48.774;9.282;2023-05-08T08:35:10;12.13;;;11.20;;
2157;SDS011;41972;48.774;9.282;2023-05-08T08:37:36;17.43;;;16.20;;
2157;SDS011;41972;48.774;9.282;2023-05-08T08:40:02;14.97;;;13.90;;
2157;SDS011;41972;48.774;9.282;2023-05-08T08:42:28;13.53;;;12.53;;
2157;SDS011;41972;48.774;9.282;2023-05-08T08:44:54;17.80;;;16.70;;
2157;SDS011;41972;48.774;9.282;2023-05-08T08:47:20;19.10;;;17.60;;
2157;SDS011;41972;48.774;9.282;2023-05-08T08:49:48;16.93;;;15.70;;
2157;SDS011;41972;48.774;9.282;2023-05-08T08:52:31;16.77;;;15.57;;
2157;SDS011;41972;48.774;9.282;2023-05-08T08:55:11;18.57;;;17.07;;
2157;SDS011;41972;48.774;9.282;2023-05-08T08:57:42;25.67;;;24.07;;
2157;SDS011;41972;48.774;9.282;2023-05-08T09:00:24;18.83;;;17.53;;
2157;SDS011;41972;48.774;9.282;2023-05-08T09:02:54;24.27;;;22.67;;
2157;SDS011;41972;48.774;9.282;2023-05-08T09:05:20;19.13;;;17.83;;
2157;SDS011;41972;48.774;9.282;2023-05-08T09:07:47;21.97;;;20.30;;
2157;SDS011;41972;48.774;9.282;2023-05-08T09:10:13;19.67;;;18.17;;
2157;SDS011;41972;48.774;9.282;2023-05-08T09:12:40;21.80;;;20.47;;
2157;SDS011;41972;48.774;9.282;2023-05-08T09:15:06;16.00;;;14.80;;
2157;SDS011;41972;48.774;9.282;2023-05-08T09:17:31;16.83;;;15.63;;
2157;SDS011;41972;48.774;9.282;2023-05-08T09:19:57;24.03;;;22.53;;
2157;SDS011;41972;48.774;9.282;2023-05-08T09:22:23;15.13;;;13.93;;
2157;SDS011;41972;48.774;9.282;2023-05-08T09:24:57;26.73;;;25.00;;
2157;SDS011;41972;48.774;9.282;2023-05-08T09:27:24;23.47;;;22.07;;
2157;SDS011;41972;48.774;9.282;2023-05-08T09:29:58;21.00;;;19.43;;
2157;SDS011;41972;48.774;9.282;2023-05-08T09:32:32;20.10;;;18.80;;
2157;SDS011;41972;48.774;9.282;2023-05-08T09:34:59;22.57;;;21.17;;
2157;SDS011;41972;48.774;9.282;2023-05-08T09:37:26;19.50;;;18.00;;
2157;SDS011;41972;48.774;9.282;2023-05-08T09:39:52;20.53;;;19.03;;
2157;SDS011;41972;48.774;9.282;2023-05-08T09:42:18;19.67;;;18.37;;
2157;SDS011;41972;48.774;9.282;2023-05-08T09:47:11;18.00;;;16.80;;
2157;SDS011;41972;48.774;9.282;2023-05-08T09:49:56;16.70;;;15.50;;
2157;SDS011;41972;48.774;9.282;2023-05-08T09:52:23;19.77;;;18.47;;
2157;SDS011;41972;48.774;9.282;2023-05-08T09:55:07;21.83;;;20.57;;
2157;SDS011;41972;48.774;9.282;2023-05-08T09:57:35;23.33;;;21.93;;
2157;SDS011;41972;48.774;9.282;2023-05-08T10:02:30;24.50;;;23.20;;
2157;SDS011;41972;48.774;9.282;2023-05-08T10:04:56;27.40;;;26.10;;
2157;SDS011;41972;48.774;9.282;2023-05-08T10:07:32;20.97;;;19.73;;
2157;SDS011;41972;48.774;9.282;2023-05-08T10:10:01;17.83;;;16.63;;
2157;SDS011;41972;48.774;9.282;2023-05-08T10:12:29;23.40;;;22.10;;
2157;SDS011;41972;48.774;9.282;2023-05-08T10:14:56;24.27;;;22.97;;
2157;SDS011;41972;48.774;9.282;2023-05-08T10:17:24;16.80;;;15.90;;
2157;SDS011;41972;48.774;9.282;2023-05-08T10:19:54;14.70;;;13.70;;
2157;SDS011;41972;48.774;9.282;2023-05-08T10:22:24;23.80;;;22.50;;
2157;SDS011;41972;48.774;9.282;2023-05-08T10:24:51;22.20;;;20.80;;
2157;SDS011;41972;48.774;9.282;2023-05-08T10:27:22;21.07;;;19.87;;
2157;SDS011;41972;48.774;9.282;2023-05-08T10:29:55;20.53;;;19.43;;
2157;SDS011;41972;48.774;9.282;2023-05-08T10:32:23;19.30;;;17.80;;
2157;SDS011;41972;48.774;9.282;2023-05-08T10:34:51;19.83;;;18.63;;
2157;SDS011;41972;48.774;9.282;2023-05-08T10:37:17;22.70;;;21.40;;
2157;SDS011;41972;48.774;9.282;2023-05-08T10:39:44;18.20;;;16.80;;
2157;SDS011;41972;48.774;9.282;2023-05-08T10:42:13;18.00;;;16.60;;
2157;SDS011;41972;48.774;9.282;2023-05-08T10:44:39;18.90;;;17.50;;
2157;SDS011;41972;48.774;9.282;2023-05-08T10:47:15;22.60;;;21.00;;
2157;SDS011;41972;48.774;9.282;2023-05-08T10:49:48;23.97;;;22.27;;
2157;SDS011;41972;48.774;9.282;2023-05-08T10:55:15;24.07;;;22.47;;
2157;SDS011;41972;48.774;9.282;2023-05-08T10:58:12;26.13;;;24.63;;
2157;SDS011;41972;48.774;9.282;2023-05-08T11:03:17;23.60;;;22.00;;
2157;SDS011;41972;48.774;9.282;2023-05-08T11:05:47;25.10;;;23.60;;
2157;SDS011;41972;48.774;9.282;2023-05-08T11:08:16;26.93;;;25.23;;
2157;SDS011;41972;48.774;9.282;2023-05-08T11:10:43;19.13;;;17.83;;
2157;SDS011;41972;48.774;9.282;2023-05-08T11:13:14;22.63;;;21.23;;
2157;SDS011;41972;48.774;9.282;2023-05-08T11:15:40;20.57;;;19.27;;
2157;SDS011;41972;48.774;9.282;2023-05-08T11:18:14;21.13;;;19.77;;
2157;SDS011;41972;48.774;9.282;2023-05-08T11:20:53;21.17;;;19.67;;
2157;SDS011;41972;48.774;9.282;2023-05-08T11:23:26;23.63;;;22.13;;
2157;SDS011;41972;48.774;9.282;2023-05-08T11:25:59;20.97;;;19.43;;
2157;SDS011;41972;48.774;9.282;2023-05-08T11:28:27;23.37;;;21.80;;
2157;SDS011;41972;48.774;9.282;2023-05-08T11:30:56;21.73;;;20.20;;
2157;SDS011;41972;48.774;9.282;2023-05-08T11:33:32;19.67;;;18.37;;
2157;SDS011;41972;48.774;9.282;2023-05-08T11:38:37;21.47;;;19.93;;
2157;SDS011;41972;48.774;9.282;2023-05-08T11:41:07;22.60;;;20.87;;
2157;SDS011;41972;48.774;9.282;2023-05-08T11:49:03;23.10;;;21.70;;
2157;SDS011;41972;48.774;9.282;2023-05-08T11:51:30;25.20;;;23.37;;
2157;SDS011;41972;48.774;9.282;2023-05-08T11:53:57;20.60;;;19.13;;
2157;SDS011;41972;48.774;9.282;2023-05-08T11:56:23;21.77;;;20.07;;
2157;SDS011;41972;48.774;9.282;2023-05-08T11:59:00;20.13;;;18.73;;
2157;SDS011;41972;48.774;9.282;2023-05-08T12:01:27;22.47;;;20.80;;
2157;SDS011;41972;48.774;9.282;2023-05-08T12:04:01;22.90;;;21.30;;
2157;SDS011;41972;48.774;9.282;2023-05-08T12:06:31;23.93;;;22.00;;
2157;SDS011;41972;48.774;9.282;2023-05-08T12:08:58;24.27;;;22.47;;
2157;SDS011;41972;48.774;9.282;2023-05-08T12:11:24;21.10;;;19.57;;
2157;SDS011;41972;48.774;9.282;2023-05-08T12:13:51;22.33;;;20.70;;
2157;SDS011;41972;48.774;9.282;2023-05-08T12:16:17;25.20;;;23.70;;
2157;SDS011;41972;48.774;9.282;2023-05-08T12:18:42;25.37;;;23.67;;
2157;SDS011;41972;48.774;9.282;2023-05-08T12:21:09;25.00;;;23.50;;
2157;SDS011;41972;48.774;9.282;2023-05-08T12:23:36;22.70;;;21.10;;
2157;SDS011;41972;48.774;9.282;2023-05-08T12:26:02;23.00;;;21.30;;
2157;SDS011;41972;48.774;9.282;2023-05-08T12:28:28;21.30;;;19.70;;
2157;SDS011;41972;48.774;9.282;2023-05-08T12:30:56;20.50;;;19.10;;
2157;SDS011;41972;48.774;9.282;2023-05-08T12:33:22;23.33;;;21.93;;
2157;SDS011;41972;48.774;9.282;2023-05-08T12:35:48;24.77;;;23.17;;
2157;SDS011;41972;48.774;9.282;2023-05-08T12:38:14;23.10;;;21.70;;
2157;SDS011;41972;48.774;9.282;2023-05-08T12:40:40;23.60;;;21.93;;
2157;SDS011;41972;48.774;9.282;2023-05-08T12:43:07;21.10;;;19.80;;
2157;SDS011;41972;48.774;9.282;2023-05-08T12:45:34;20.20;;;18.80;;
2157;SDS011;41972;48.774;9.282;2023-05-08T12:48:03;20.27;;;18.87;;
2157;SDS011;41972;48.774;9.282;2023-05-08T12:50:37;21.03;;;19.43;;
2157;SDS011;41972;48.774;9.282;2023-05-08T12:53:08;23.50;;;21.90;;
2157;SDS011;41972;48.774;9.282;2023-05-08T12:55:49;20.90;;;19.40;;
2157;SDS011;41972;48.774;9.282;2023-05-08T12:58:17;20.60;;;19.30;;
2157;SDS011;41972;48.774;9.282;2023-05-08T13:00:44;22.17;;;20.53;;
2157;SDS011;41972;48.774;9.282;2023-05-08T13:03:11;23.83;;;22.13;;
2157;SDS011;41972;48.774;9.282;2023-05-08T13:05:42;21.87;;;20.10;;
2157;SDS011;41972;48.774;9.282;2023-05-08T13:08:09;20.57;;;19.17;;
2157;SDS011;41972;48.774;9.282;2023-05-08T13:10:44;25.00;;;23.30;;
2157;SDS011;41972;48.774;9.282;2023-05-08T13:13:10;21.50;;;20.07;;
2157;SDS011;41972;48.774;9.282;2023-05-08T13:15:37;23.20;;;21.57;;
2157;SDS011;41972;48.774;9.282;2023-05-08T13:18:02;23.77;;;22.00;;
2157;SDS011;41972;48.774;9.282;2023-05-08T13:20:28;25.50;;;23.90;;
2157;SDS011;41972;48.774;9.282;2023-05-08T13:22:54;25.40;;;23.83;;
2157;SDS011;41972;48.774;9.282;2023-05-08T13:25:19;28.73;;;26.83;;
2157;SDS011;41972;48.774;9.282;2023-05-08T13:27:45;25.20;;;23.40;;
2157;SDS011;41972;48.774;9.282;2023-05-08T13:30:11;24.47;;;22.63;;
2157;SDS011;41972;48.774;9.282;2023-05-08T13:32:37;20.40;;;18.80;;
2157;SDS011;41972;48.774;9.282;2023-05-08T13:35:02;22.40;;;20.87;;
2157;SDS011;41972;48.774;9.282;2023-05-08T13:37:28;23.40;;;21.83;;
2157;SDS011;41972;48.774;9.282;2023-05-08T13:39:54;26.50;;;24.70;;
2157;SDS011;41972;48.774;9.282;2023-05-08T13:42:20;21.97;;;20.10;;
2157;SDS011;41972;48.774;9.282;2023-05-08T13:44:45;23.70;;;22.20;;
2157;SDS011;41972;48.774;9.282;2023-05-08T13:47:11;24.50;;;22.93;;
2157;SDS011;41972;48.774;9.282;2023-05-08T13:49:36;24.67;;;23.17;;
2157;SDS011;41972;48.774;9.282;2023-05-08T13:52:02;25.93;;;24.43;;
2157;SDS011;41972;48.774;9.282;2023-05-08T13:54:28;24.33;;;22.73;;
2157;SDS011;41972;48.774;9.282;2023-05-08T13:56:53;22.03;;;20.40;;
2157;SDS011;41972;48.774;9.282;2023-05-08T13:59:19;22.67;;;21.17;;
2157;SDS011;41972;48.774;9.282;2023-05-08T14:01:44;22.87;;;21.47;;
2157;SDS011;41972;48.774;9.282;2023-05-08T14:04:10;22.43;;;20.93;;
2157;SDS011;41972;48.774;9.282;2023-05-08T14:06:35;26.87;;;25.27;;
2157;SDS011;41972;48.774;9.282;2023-05-08T14:09:01;28.20;;;26.60;;
2157;SDS011;41972;48.774;9.282;2023-05-08T14:11:27;22.83;;;21.43;;
2157;SDS011;41972;48.774;9.282;2023-05-08T14:13:53;32.80;;;31.10;;
2157;SDS011;41972;48.774;9.282;2023-05-08T14:16:19;28.43;;;26.53;;
2157;SDS011;41972;48.774;9.282;2023-05-08T14:18:45;22.77;;;21.13;;
2157;SDS011;41972;48.774;9.282;2023-05-08T14:21:11;23.50;;;22.00;;
2157;SDS011;41972;48.774;9.282;2023-05-08T14:23:36;23.33;;;22.00;;
2157;SDS011;41972;48.774;9.282;2023-05-08T14:26:02;23.50;;;22.00;;
2157;SDS011;41972;48.774;9.282;2023-05-08T14:28:28;27.37;;;25.30;;
2157;SDS011;41972;48.774;9.282;2023-05-08T14:30:54;20.30;;;18.90;;
2157;SDS011;41972;48.774;9.282;2023-05-08T14:33:20;19.10;;;17.77;;
2157;SDS011;41972;48.774;9.282;2023-05-08T14:35:45;16.50;;;15.30;;
2157;SDS011;41972;48.774;9.282;2023-05-08T14:38:12;19.60;;;18.00;;
2157;SDS011;41972;48.774;9.282;2023-05-08T14:40:38;19.03;;;17.13;;
2157;SDS011;41972;48.774;9.282;2023-05-08T14:43:04;19.10;;;17.60;;
2157;SDS011;41972;48.774;9.282;2023-05-08T14:45:30;20.83;;;19.37;;
2157;SDS011;41972;48.774;9.282;2023-05-08T14:47:55;18.67;;;17.47;;
2157;SDS011;41972;48.774;9.282;2023-05-08T14:50:21;21.93;;;20.33;;
2157;SDS011;41972;48.774;9.282;2023-05-08T14:52:48;21.23;;;19.93;;
2157;SDS011;41972;48.774;9.282;2023-05-08T14:55:14;21.03;;;19.73;;
2157;SDS011;41972;48.774;9.282;2023-05-08T14:57:47;20.23;;;18.83;;
2157;SDS011;41972;48.774;9.282;2023-05-08T15:00:14;20.43;;;19.03;;
2157;SDS011;41972;48.774;9.282;2023-05-08T15:02:40;20.60;;;19.03;;
2157;SDS011;41972;48.774;9.282;2023-05-08T15:05:06;21.23;;;19.83;;
2157;SDS011;41972;48.774;9.282;2023-05-08T15:07:33;22.00;;;20.10;;
2157;SDS011;41972;48.774;9.282;2023-05-08T15:09:59;19.97;;;18.53;;
2157;SDS011;41972;48.774;9.282;2023-05-08T15:12:24;19.57;;;18.17;;
2157;SDS011;41972;48.774;9.282;2023-05-08T15:14:50;20.83;;;19.37;;
2157;SDS011;41972;48.774;9.282;2023-05-08T15:17:16;20.97;;;19.47;;
2157;SDS011;41972;48.774;9.282;2023-05-08T15:19:42;22.83;;;21.23;;
2157;SDS011;41972;48.774;9.282;2023-05-08T15:22:09;22.17;;;20.77;;